Wolgastern — CQLH — position and weather

sailwx.info

Track history (hours):
 
Tides and Currents Weather Stations Pressure Air Temp Water Temp Dewpoint Dewpoint Depression Visibility Wind Speed Wind Dir Waves Ship Positions

Wolgastern

Last reported at 2017-Feb-22 20:33 UTC. Time now 2017-Feb-24 03:41 UTC.
Position N 39°58' W 009°56'.

Length 162 m; draft 8.7 m.

Type: Tanker. MMSI: 255804950.

Date/timePositionNaut miles runAvg speedWind from/ knotsBaromVisibWave heightAir tempDewpointWater temp
2017-Feb-22 20:33N 39°58' W 009°56'1111.0
2017-Feb-22 19:33N 39°47' W 009°56'1111.0
2017-Feb-22 18:33N 39°36' W 009°56'1111.1
2017-Feb-22 17:33N 39°25' W 009°56'1111.0
2017-Feb-22 16:33N 39°14' W 009°56'1111.2
2017-Feb-22 15:33N 39°03' W 009°56'1111.1
2017-Feb-22 14:33N 38°52' W 009°56'1111.3
2017-Feb-22 13:33N 38°41' W 009°55'1211.7
2017-Feb-22 12:33N 38°29' W 009°52'1211.8
2017-Feb-22 11:33N 38°18' W 009°48'1211.6
2017-Feb-22 10:33N 38°07' W 009°45'4011.6
2017-Feb-22 07:06N 37°28' W 009°34'1911.5
2017-Feb-22 05:26N 37°09' W 009°28'19911.0
2017-Feb-21 11:25N 35°58' W 005°37'1012.1
2017-Feb-21 10:33N 36°00' W 005°25'1211.9
2017-Feb-21 09:33N 36°03' W 005°11'22511.6
2017-Feb-20 14:04N 37°24' W 000°48'1912.2
2017-Feb-20 12:29N 37°38' W 000°31'15612.1
2017-Feb-19 23:33N 39°59' E 000°55'1312.1
2017-Feb-19 22:29N 40°12' E 000°59'1212.2
2017-Feb-19 21:31N 40°23' E 001°02'43 1.1
2017-Feb-18 05:12N 41°05' E 001°12'0 0.4
2017-Feb-18 04:32N 41°05' E 001°12'3 0.6
2017-Feb-17 23:18N 41°04' E 001°16'0 0.0
2017-Feb-17 22:18N 41°04' E 001°16'0 0.1
2017-Feb-17 21:24N 41°04' E 001°16'0 0.1
2017-Feb-17 20:32N 41°04' E 001°16'2010.2
2017-Feb-17 18:32N 40°45' E 001°07'1312.8
2017-Feb-17 17:33N 40°32' E 001°04'18212.0
2017-Feb-17 02:23N 37°44' W 000°23'1011.6
2017-Feb-17 01:33N 37°36' W 000°29'1111.3
2017-Feb-17 00:33N 37°27' W 000°39'23510.6
2017-Feb-16 02:18N 36°01' W 005°12'7 9.2
2017-Feb-16 01:34N 35°59' W 005°20'214 9.7
2017-Feb-15 03:33N 36°55' W 009°36'6312.0
2017-Feb-14 22:17N 37°56' W 009°55'912.0
2017-Feb-14 21:32N 38°05' W 009°57'1212.1
2017-Feb-14 20:33N 38°17' W 010°00'1212.0
2017-Feb-14 19:33N 38°29' W 010°04'1211.8
2017-Feb-14 18:33N 38°40' W 010°07'1211.8
2017-Feb-14 17:33N 38°52' W 010°08'1111.2
2017-Feb-14 16:33N 39°03' W 010°08'1211.1
2017-Feb-14 15:29N 39°15' W 010°08'28510.2
2017-Feb-13 11:30N 43°51' W 008°35'9911.8
2017-Feb-13 03:10N 43°53' W 006°18'912.6
2017-Feb-13 02:27N 43°52' W 006°06'1112.5
2017-Feb-13 01:33N 43°51' W 005°50'1312.7
2017-Feb-13 00:34N 43°50' W 005°32'  
Track history (hours):
 
Tides and Currents Weather Stations Pressure Air Temp Water Temp Dewpoint Dewpoint Depression Visibility Wind Speed Wind Dir Waves Ship Positions

Wolgastern

Last reported at 2017-Feb-22 20:33 UTC. Time now 2017-Feb-24 03:41 UTC.
Position N 39°58' W 009°56'.

Length 162 m; draft 8.7 m.

Type: Tanker. MMSI: 255804950.

Date/timePositionNaut miles runAvg speedWind from/ knotsBaromVisibWave heightAir tempDewpointWater temp
2017-Feb-22 20:33N 39°58' W 009°56'1111.0
2017-Feb-22 19:33N 39°47' W 009°56'1111.0
2017-Feb-22 18:33N 39°36' W 009°56'1111.1
2017-Feb-22 17:33N 39°25' W 009°56'1111.0
2017-Feb-22 16:33N 39°14' W 009°56'1111.2
2017-Feb-22 15:33N 39°03' W 009°56'1111.1
2017-Feb-22 14:33N 38°52' W 009°56'1111.3
2017-Feb-22 13:33N 38°41' W 009°55'1211.7
2017-Feb-22 12:33N 38°29' W 009°52'1211.8
2017-Feb-22 11:33N 38°18' W 009°48'1211.6
2017-Feb-22 10:33N 38°07' W 009°45'4011.6
2017-Feb-22 07:06N 37°28' W 009°34'1911.5
2017-Feb-22 05:26N 37°09' W 009°28'19911.0
2017-Feb-21 11:25N 35°58' W 005°37'1012.1
2017-Feb-21 10:33N 36°00' W 005°25'1211.9
2017-Feb-21 09:33N 36°03' W 005°11'22511.6
2017-Feb-20 14:04N 37°24' W 000°48'1912.2
2017-Feb-20 12:29N 37°38' W 000°31'15612.1
2017-Feb-19 23:33N 39°59' E 000°55'1312.1
2017-Feb-19 22:29N 40°12' E 000°59'1212.2
2017-Feb-19 21:31N 40°23' E 001°02'43 1.1
2017-Feb-18 05:12N 41°05' E 001°12'0 0.4
2017-Feb-18 04:32N 41°05' E 001°12'3 0.6
2017-Feb-17 23:18N 41°04' E 001°16'0 0.0
2017-Feb-17 22:18N 41°04' E 001°16'0 0.1
2017-Feb-17 21:24N 41°04' E 001°16'0 0.1
2017-Feb-17 20:32N 41°04' E 001°16'2010.2
2017-Feb-17 18:32N 40°45' E 001°07'1312.8
2017-Feb-17 17:33N 40°32' E 001°04'18212.0
2017-Feb-17 02:23N 37°44' W 000°23'1011.6
2017-Feb-17 01:33N 37°36' W 000°29'1111.3
2017-Feb-17 00:33N 37°27' W 000°39'23510.6
2017-Feb-16 02:18N 36°01' W 005°12'7 9.2
2017-Feb-16 01:34N 35°59' W 005°20'214 9.7
2017-Feb-15 03:33N 36°55' W 009°36'6312.0
2017-Feb-14 22:17N 37°56' W 009°55'912.0
2017-Feb-14 21:32N 38°05' W 009°57'1212.1
2017-Feb-14 20:33N 38°17' W 010°00'1212.0
2017-Feb-14 19:33N 38°29' W 010°04'1211.8
2017-Feb-14 18:33N 38°40' W 010°07'1211.8
2017-Feb-14 17:33N 38°52' W 010°08'1111.2
2017-Feb-14 16:33N 39°03' W 010°08'1211.1
2017-Feb-14 15:29N 39°15' W 010°08'28510.2
2017-Feb-13 11:30N 43°51' W 008°35'9911.8
2017-Feb-13 03:10N 43°53' W 006°18'912.6
2017-Feb-13 02:27N 43°52' W 006°06'1112.5
2017-Feb-13 01:33N 43°51' W 005°50'1312.7
2017-Feb-13 00:34N 43°50' W 005°32'  

Dump ship's entire track history